GFA182 OEJN-OBBI
Flight info
| Callsign | GFA182 |
|---|---|
| Flight time | 1h 35m |
| Altitude | 37000 |
| Route | EGREP T532 KSA H976 MUSRI L604 KFA M691 LADNA |
| Aircraft | A321/M-SDE3FGHIRWY/LB1 |
Departure
| Time | 2026-04-27 21:18 |
|---|---|
| Airport | King Abdulaziz International Airport (OEJN) |
Arrival
| Time | 2026-04-27 22:54 |
|---|---|
| Airport | Bahrain International Airport (OBBI) |
| Time | Latitude | Longitude | Altitude | Speed | Heading |
|---|---|---|---|---|---|
| 2026-04-27 20:51 | 21.67198 | 39.17065 | 32 ft | 0 kts | 139° |
| 2026-04-27 21:03 | 21.67204 | 39.17059 | 32 ft | 4 kts | 140° |
| 2026-04-27 21:03 | 21.67225 | 39.17040 | 31 ft | 4 kts | 144° |
| 2026-04-27 21:04 | 21.67248 | 39.17025 | 31 ft | 4 kts | 153° |
| 2026-04-27 21:04 | 21.67273 | 39.17014 | 33 ft | 4 kts | 178° |
| 2026-04-27 21:04 | 21.67291 | 39.17019 | 32 ft | 1 kts | 231° |
| 2026-04-27 21:09 | 21.67288 | 39.17015 | 32 ft | 2 kts | 231° |
| 2026-04-27 21:09 | 21.67278 | 39.17002 | 32 ft | 3 kts | 231° |
| 2026-04-27 21:09 | 21.67260 | 39.16978 | 33 ft | 5 kts | 231° |
| 2026-04-27 21:10 | 21.67238 | 39.16945 | 33 ft | 6 kts | 237° |
| 2026-04-27 21:10 | 21.67221 | 39.16897 | 33 ft | 8 kts | 257° |
| 2026-04-27 21:10 | 21.67216 | 39.16834 | 33 ft | 9 kts | 275° |
| 2026-04-27 21:10 | 21.67262 | 39.16785 | 32 ft | 11 kts | 344° |
| 2026-04-27 21:11 | 21.67344 | 39.16763 | 32 ft | 13 kts | 345° |
| 2026-04-27 21:11 | 21.67439 | 39.16735 | 32 ft | 15 kts | 344° |
| 2026-04-27 21:11 | 21.67544 | 39.16698 | 32 ft | 17 kts | 341° |
| 2026-04-27 21:11 | 21.67634 | 39.16658 | 32 ft | 13 kts | 320° |
| 2026-04-27 21:12 | 21.67636 | 39.16568 | 32 ft | 14 kts | 254° |
| 2026-04-27 21:12 | 21.67601 | 39.16468 | 32 ft | 15 kts | 249° |
| 2026-04-27 21:12 | 21.67571 | 39.16380 | 31 ft | 11 kts | 250° |
| 2026-04-27 21:12 | 21.67544 | 39.16298 | 31 ft | 13 kts | 250° |
| 2026-04-27 21:13 | 21.67511 | 39.16203 | 30 ft | 14 kts | 250° |
| 2026-04-27 21:13 | 21.67435 | 39.16165 | 30 ft | 14 kts | 163° |
| 2026-04-27 21:13 | 21.67340 | 39.16203 | 31 ft | 15 kts | 158° |
| 2026-04-27 21:13 | 21.67241 | 39.16245 | 32 ft | 16 kts | 158° |
| 2026-04-27 21:14 | 21.67138 | 39.16288 | 33 ft | 16 kts | 159° |
| 2026-04-27 21:14 | 21.67028 | 39.16332 | 33 ft | 17 kts | 159° |
| 2026-04-27 21:14 | 21.66913 | 39.16378 | 34 ft | 18 kts | 160° |
| 2026-04-27 21:14 | 21.66792 | 39.16424 | 34 ft | 19 kts | 160° |
| 2026-04-27 21:15 | 21.66665 | 39.16473 | 35 ft | 20 kts | 160° |
| 2026-04-27 21:15 | 21.66533 | 39.16526 | 35 ft | 21 kts | 159° |
| 2026-04-27 21:15 | 21.66408 | 39.16577 | 35 ft | 14 kts | 160° |
| 2026-04-27 21:15 | 21.66324 | 39.16607 | 35 ft | 11 kts | 175° |
| 2026-04-27 21:16 | 21.66271 | 39.16558 | 34 ft | 9 kts | 248° |
| 2026-04-27 21:16 | 21.66246 | 39.16485 | 33 ft | 12 kts | 250° |
| 2026-04-27 21:16 | 21.66240 | 39.16447 | 33 ft | 4 kts | 293° |
| 2026-04-27 21:16 | 21.66265 | 39.16429 | 34 ft | 5 kts | 338° |
| 2026-04-27 21:17 | 21.66302 | 39.16413 | 34 ft | 6 kts | 341° |
| 2026-04-27 21:17 | 21.66403 | 39.16374 | 35 ft | 44 kts | 340° |
| 2026-04-27 21:17 | 21.66936 | 39.16165 | 34 ft | 117 kts | 340° |
| 2026-04-27 21:17 | 21.67892 | 39.15790 | 30 ft | 173 kts | 340° |
| 2026-04-27 21:18 | 21.69109 | 39.15321 | 456 ft | 188 kts | 339° |
| 2026-04-27 21:18 | 21.70337 | 39.14840 | 1261 ft | 187 kts | 342° |
| 2026-04-27 21:18 | 21.71548 | 39.14357 | 2100 ft | 186 kts | 342° |
| 2026-04-27 21:18 | 21.72788 | 39.13867 | 2504 ft | 198 kts | 341° |
| 2026-04-27 21:19 | 21.74164 | 39.13327 | 2675 ft | 223 kts | 341° |
| 2026-04-27 21:19 | 21.75693 | 39.12726 | 2977 ft | 244 kts | 340° |
| 2026-04-27 21:19 | 21.77313 | 39.12086 | 3536 ft | 252 kts | 339° |
| 2026-04-27 21:20 | 21.80685 | 39.10750 | 4774 ft | 264 kts | 339° |
| 2026-04-27 21:20 | 21.82426 | 39.10062 | 5410 ft | 270 kts | 338° |
| 2026-04-27 21:20 | 21.84209 | 39.09355 | 5873 ft | 276 kts | 338° |
| 2026-04-27 21:20 | 21.86017 | 39.08636 | 6029 ft | 279 kts | 339° |
| 2026-04-27 21:21 | 21.87854 | 39.07907 | 6614 ft | 282 kts | 338° |
| 2026-04-27 21:21 | 21.89678 | 39.07180 | 7280 ft | 284 kts | 337° |
| 2026-04-27 21:21 | 21.91518 | 39.06374 | 7930 ft | 287 kts | 334° |
| 2026-04-27 21:21 | 21.93357 | 39.05504 | 8584 ft | 290 kts | 333° |
| 2026-04-27 21:22 | 21.95205 | 39.04605 | 9231 ft | 293 kts | 333° |
| 2026-04-27 21:22 | 21.97075 | 39.03689 | 9893 ft | 296 kts | 332° |
| 2026-04-27 21:22 | 21.98985 | 39.02757 | 10251 ft | 311 kts | 332° |
| 2026-04-27 21:22 | 22.01023 | 39.01765 | 10379 ft | 332 kts | 332° |
| 2026-04-27 21:23 | 22.03192 | 39.00714 | 10527 ft | 350 kts | 333° |
| 2026-04-27 21:23 | 22.05443 | 38.99631 | 10962 ft | 357 kts | 333° |
| 2026-04-27 21:23 | 22.07727 | 38.98540 | 11495 ft | 361 kts | 333° |
| 2026-04-27 21:23 | 22.10041 | 38.97439 | 12058 ft | 364 kts | 333° |
| 2026-04-27 21:24 | 22.12432 | 38.96474 | 12592 ft | 372 kts | 343° |
| 2026-04-27 21:24 | 22.15029 | 38.96181 | 13129 ft | 381 kts | 359° |
| 2026-04-27 21:24 | 22.17632 | 38.96662 | 13651 ft | 390 kts | 16° |
| 2026-04-27 21:24 | 22.20086 | 38.97950 | 14126 ft | 397 kts | 33° |
| 2026-04-27 21:25 | 22.22217 | 38.99885 | 14581 ft | 402 kts | 41° |
| 2026-04-27 21:25 | 22.24304 | 39.01920 | 15057 ft | 406 kts | 41° |
| 2026-04-27 21:25 | 22.26413 | 39.03975 | 15509 ft | 410 kts | 41° |
| 2026-04-27 21:25 | 22.28364 | 39.06255 | 15949 ft | 416 kts | 52° |
| 2026-04-27 21:26 | 22.29910 | 39.08908 | 16385 ft | 421 kts | 63° |
| 2026-04-27 21:26 | 22.30989 | 39.11864 | 16824 ft | 424 kts | 75° |
| 2026-04-27 21:26 | 22.31681 | 39.14977 | 17209 ft | 429 kts | 78° |
| 2026-04-27 21:26 | 22.32360 | 39.18131 | 17620 ft | 434 kts | 78° |
| 2026-04-27 21:27 | 22.33046 | 39.21286 | 18029 ft | 439 kts | 78° |
| 2026-04-27 21:27 | 22.33752 | 39.24509 | 18419 ft | 443 kts | 78° |
| 2026-04-27 21:27 | 22.34466 | 39.27757 | 18796 ft | 446 kts | 78° |
| 2026-04-27 21:27 | 22.35186 | 39.31030 | 19177 ft | 449 kts | 78° |
| 2026-04-27 21:28 | 22.35905 | 39.34331 | 19538 ft | 453 kts | 78° |
| 2026-04-27 21:28 | 22.36626 | 39.37659 | 19883 ft | 456 kts | 78° |
| 2026-04-27 21:28 | 22.37351 | 39.41008 | 20266 ft | 460 kts | 78° |
| 2026-04-27 21:28 | 22.38081 | 39.44391 | 20640 ft | 463 kts | 78° |
| 2026-04-27 21:29 | 22.38814 | 39.47787 | 21024 ft | 465 kts | 79° |
| 2026-04-27 21:29 | 22.39550 | 39.51204 | 21393 ft | 468 kts | 79° |
| 2026-04-27 21:29 | 22.40293 | 39.54635 | 21738 ft | 471 kts | 79° |
| 2026-04-27 21:29 | 22.41043 | 39.58101 | 22071 ft | 474 kts | 79° |
| 2026-04-27 21:30 | 22.41795 | 39.61580 | 22404 ft | 477 kts | 79° |
| 2026-04-27 21:30 | 22.42542 | 39.65045 | 22743 ft | 480 kts | 79° |
| 2026-04-27 21:30 | 22.43303 | 39.68574 | 23111 ft | 483 kts | 79° |
| 2026-04-27 21:30 | 22.44065 | 39.72127 | 23445 ft | 486 kts | 79° |
| 2026-04-27 21:31 | 22.44829 | 39.75698 | 23752 ft | 489 kts | 79° |
| 2026-04-27 21:31 | 22.45799 | 39.79240 | 24066 ft | 494 kts | 70° |
| 2026-04-27 21:31 | 22.47275 | 39.82598 | 24378 ft | 495 kts | 59° |
| 2026-04-27 21:31 | 22.49215 | 39.85656 | 24704 ft | 494 kts | 49° |
| 2026-04-27 21:32 | 22.51571 | 39.88345 | 25037 ft | 492 kts | 39° |
| 2026-04-27 21:32 | 22.54155 | 39.90798 | 25282 ft | 495 kts | 38° |
| 2026-04-27 21:32 | 22.56749 | 39.93261 | 25565 ft | 497 kts | 38° |
| 2026-04-27 21:32 | 22.59350 | 39.95743 | 25855 ft | 499 kts | 38° |
| 2026-04-27 21:33 | 22.61968 | 39.98249 | 26156 ft | 501 kts | 38° |
| 2026-04-27 21:33 | 22.64544 | 40.00721 | 26453 ft | 503 kts | 38° |
| 2026-04-27 21:33 | 22.67168 | 40.03240 | 26752 ft | 504 kts | 38° |
| 2026-04-27 21:33 | 22.69795 | 40.05760 | 27064 ft | 505 kts | 38° |
| 2026-04-27 21:34 | 22.72434 | 40.08286 | 27374 ft | 507 kts | 38° |
| 2026-04-27 21:34 | 22.75083 | 40.10818 | 27637 ft | 509 kts | 37° |
| 2026-04-27 21:34 | 22.77746 | 40.13368 | 27925 ft | 511 kts | 37° |
| 2026-04-27 21:34 | 22.80410 | 40.15927 | 28201 ft | 513 kts | 37° |
| 2026-04-27 21:35 | 22.83083 | 40.18494 | 28474 ft | 514 kts | 37° |
| 2026-04-27 21:35 | 22.85771 | 40.21073 | 28739 ft | 516 kts | 37° |
| 2026-04-27 21:35 | 22.88462 | 40.23656 | 28989 ft | 518 kts | 37° |
| 2026-04-27 21:35 | 22.91163 | 40.26252 | 29235 ft | 520 kts | 37° |
| 2026-04-27 21:36 | 22.93879 | 40.28860 | 29406 ft | 523 kts | 37° |
| 2026-04-27 21:36 | 22.96610 | 40.31487 | 29621 ft | 525 kts | 37° |
| 2026-04-27 21:36 | 22.99341 | 40.34120 | 29842 ft | 526 kts | 37° |
| 2026-04-27 21:36 | 23.02082 | 40.36763 | 30041 ft | 528 kts | 37° |
| 2026-04-27 21:37 | 23.04830 | 40.39413 | 30208 ft | 529 kts | 37° |
| 2026-04-27 21:37 | 23.07590 | 40.42075 | 30368 ft | 530 kts | 37° |
| 2026-04-27 21:37 | 23.10339 | 40.44732 | 30587 ft | 530 kts | 36° |
| 2026-04-27 21:37 | 23.13094 | 40.47393 | 30770 ft | 530 kts | 36° |
| 2026-04-27 21:38 | 23.15815 | 40.50024 | 30979 ft | 529 kts | 36° |
| 2026-04-27 21:38 | 23.18565 | 40.52685 | 31227 ft | 528 kts | 36° |
| 2026-04-27 21:38 | 23.21303 | 40.55338 | 31464 ft | 526 kts | 36° |
| 2026-04-27 21:38 | 23.24018 | 40.58011 | 31660 ft | 528 kts | 39° |
| 2026-04-27 21:39 | 23.26459 | 40.61022 | 31863 ft | 534 kts | 49° |
| 2026-04-27 21:39 | 23.28486 | 40.64424 | 32063 ft | 540 kts | 58° |
| 2026-04-27 21:39 | 23.31391 | 40.72016 | 32369 ft | 545 kts | 67° |
| 2026-04-27 21:40 | 23.32275 | 40.74569 | 32488 ft | 545 kts | 67° |
| 2026-04-27 21:40 | 23.34046 | 40.79677 | 32742 ft | 544 kts | 67° |
| 2026-04-27 21:40 | 23.34949 | 40.82276 | 32871 ft | 544 kts | 67° |
| 2026-04-27 21:40 | 23.36718 | 40.87376 | 33120 ft | 544 kts | 66° |
| 2026-04-27 21:41 | 23.37620 | 40.89980 | 33252 ft | 544 kts | 66° |
| 2026-04-27 21:41 | 23.38953 | 40.93834 | 33443 ft | 543 kts | 66° |
| 2026-04-27 21:41 | 23.40281 | 40.97675 | 33662 ft | 542 kts | 66° |
| 2026-04-27 21:41 | 23.41595 | 41.01473 | 33829 ft | 543 kts | 66° |
| 2026-04-27 21:42 | 23.42927 | 41.05320 | 33994 ft | 543 kts | 66° |
| 2026-04-27 21:42 | 23.44259 | 41.09171 | 34141 ft | 543 kts | 66° |
| 2026-04-27 21:42 | 23.45584 | 41.13016 | 34310 ft | 542 kts | 66° |
| 2026-04-27 21:42 | 23.46908 | 41.16858 | 34507 ft | 541 kts | 66° |
| 2026-04-27 21:43 | 23.48228 | 41.20692 | 34715 ft | 540 kts | 66° |
| 2026-04-27 21:43 | 23.49541 | 41.24520 | 34910 ft | 538 kts | 67° |
| 2026-04-27 21:43 | 23.50850 | 41.28334 | 35091 ft | 537 kts | 67° |
| 2026-04-27 21:43 | 23.52157 | 41.32142 | 35285 ft | 536 kts | 67° |
| 2026-04-27 21:44 | 23.53463 | 41.35947 | 35463 ft | 536 kts | 67° |
| 2026-04-27 21:44 | 23.54768 | 41.39755 | 35608 ft | 536 kts | 67° |
| 2026-04-27 21:44 | 23.56069 | 41.43560 | 35749 ft | 536 kts | 67° |
| 2026-04-27 21:44 | 23.57370 | 41.47364 | 35924 ft | 535 kts | 67° |
| 2026-04-27 21:45 | 23.58651 | 41.51111 | 36085 ft | 534 kts | 67° |
| 2026-04-27 21:45 | 23.60386 | 41.56186 | 36308 ft | 533 kts | 67° |
| 2026-04-27 21:45 | 23.61243 | 41.58697 | 36412 ft | 532 kts | 67° |
| 2026-04-27 21:45 | 23.62529 | 41.62478 | 36587 ft | 531 kts | 68° |
| 2026-04-27 21:46 | 23.63810 | 41.66250 | 36749 ft | 530 kts | 68° |
| 2026-04-27 21:46 | 23.65089 | 41.70017 | 36920 ft | 529 kts | 68° |
| 2026-04-27 21:46 | 23.67654 | 41.77563 | 36964 ft | 532 kts | 68° |
| 2026-04-27 21:47 | 23.70120 | 41.85176 | 36965 ft | 532 kts | 69° |
| 2026-04-27 21:47 | 23.72503 | 41.92816 | 36968 ft | 532 kts | 69° |
| 2026-04-27 21:48 | 23.74902 | 42.00451 | 36955 ft | 531 kts | 68° |
| 2026-04-27 21:48 | 23.77446 | 42.08021 | 36969 ft | 531 kts | 67° |
| 2026-04-27 21:49 | 23.80072 | 42.15504 | 36971 ft | 531 kts | 66° |
| 2026-04-27 21:49 | 23.82685 | 42.23044 | 36970 ft | 531 kts | 67° |
| 2026-04-27 21:50 | 23.85251 | 42.30604 | 36987 ft | 531 kts | 68° |
| 2026-04-27 21:50 | 23.87797 | 42.38170 | 36984 ft | 530 kts | 68° |
| 2026-04-27 21:51 | 23.90360 | 42.45739 | 36998 ft | 531 kts | 67° |
| 2026-04-27 21:51 | 23.92913 | 42.53267 | 36993 ft | 532 kts | 67° |
| 2026-04-27 21:52 | 23.95482 | 42.60860 | 36987 ft | 532 kts | 68° |
| 2026-04-27 21:52 | 23.98043 | 42.68460 | 36984 ft | 532 kts | 67° |
| 2026-04-27 21:53 | 24.00598 | 42.76053 | 36984 ft | 532 kts | 67° |
| 2026-04-27 21:53 | 24.03161 | 42.83664 | 36988 ft | 533 kts | 68° |
| 2026-04-27 21:54 | 24.05721 | 42.91296 | 36987 ft | 534 kts | 68° |
| 2026-04-27 21:54 | 24.08236 | 42.98901 | 36974 ft | 535 kts | 68° |
| 2026-04-27 21:55 | 24.10744 | 43.06579 | 36979 ft | 535 kts | 68° |
| 2026-04-27 21:55 | 24.13245 | 43.14247 | 37004 ft | 536 kts | 68° |
| 2026-04-27 21:56 | 24.17025 | 43.25777 | 36970 ft | 537 kts | 68° |
| 2026-04-27 21:57 | 24.19548 | 43.33482 | 36973 ft | 537 kts | 68° |
| 2026-04-27 21:57 | 24.22066 | 43.41194 | 36968 ft | 537 kts | 68° |
| 2026-04-27 21:58 | 24.24577 | 43.48904 | 36979 ft | 538 kts | 68° |
| 2026-04-27 21:58 | 24.27081 | 43.56623 | 36965 ft | 538 kts | 68° |
| 2026-04-27 21:59 | 24.29589 | 43.64361 | 36950 ft | 538 kts | 69° |
| 2026-04-27 21:59 | 24.32099 | 43.72111 | 36950 ft | 538 kts | 69° |
| 2026-04-27 22:00 | 24.34582 | 43.79810 | 36962 ft | 539 kts | 69° |
| 2026-04-27 22:00 | 24.37082 | 43.87575 | 36949 ft | 539 kts | 69° |
| 2026-04-27 22:01 | 24.39578 | 43.95348 | 36953 ft | 539 kts | 69° |
| 2026-04-27 22:01 | 24.42074 | 44.03105 | 36953 ft | 539 kts | 69° |
| 2026-04-27 22:02 | 24.44540 | 44.10827 | 36974 ft | 539 kts | 72° |
| 2026-04-27 22:02 | 24.46115 | 44.18887 | 36985 ft | 541 kts | 79° |
| 2026-04-27 22:03 | 24.47513 | 44.27004 | 36965 ft | 541 kts | 79° |
| 2026-04-27 22:03 | 24.48934 | 44.35122 | 36965 ft | 541 kts | 79° |
| 2026-04-27 22:04 | 24.50347 | 44.43256 | 36959 ft | 541 kts | 79° |
| 2026-04-27 22:04 | 24.51745 | 44.51376 | 36965 ft | 541 kts | 79° |
| 2026-04-27 22:05 | 24.53130 | 44.59439 | 36973 ft | 541 kts | 79° |
| 2026-04-27 22:05 | 24.54523 | 44.67575 | 36961 ft | 541 kts | 79° |
| 2026-04-27 22:06 | 24.55904 | 44.75697 | 36962 ft | 541 kts | 79° |
| 2026-04-27 22:06 | 24.57288 | 44.83832 | 36961 ft | 541 kts | 79° |
| 2026-04-27 22:07 | 24.58681 | 44.91980 | 36958 ft | 541 kts | 79° |
| 2026-04-27 22:07 | 24.60052 | 45.00059 | 36957 ft | 542 kts | 79° |
| 2026-04-27 22:08 | 24.61420 | 45.08209 | 36955 ft | 541 kts | 79° |
| 2026-04-27 22:08 | 24.62778 | 45.16346 | 36942 ft | 541 kts | 79° |
| 2026-04-27 22:09 | 24.64132 | 45.24487 | 36957 ft | 540 kts | 79° |
| 2026-04-27 22:09 | 24.65485 | 45.32608 | 36958 ft | 540 kts | 79° |
| 2026-04-27 22:10 | 24.66837 | 45.40718 | 36957 ft | 539 kts | 79° |
| 2026-04-27 22:10 | 24.68183 | 45.48824 | 36956 ft | 539 kts | 79° |
| 2026-04-27 22:11 | 24.69513 | 45.56887 | 36952 ft | 539 kts | 79° |
| 2026-04-27 22:11 | 24.70845 | 45.64992 | 36950 ft | 538 kts | 80° |
| 2026-04-27 22:12 | 24.72713 | 45.72953 | 36953 ft | 537 kts | 72° |
| 2026-04-27 22:12 | 24.74871 | 45.80831 | 36952 ft | 537 kts | 72° |
| 2026-04-27 22:13 | 24.77023 | 45.88706 | 36947 ft | 537 kts | 72° |
| 2026-04-27 22:13 | 24.79153 | 45.96574 | 36943 ft | 537 kts | 72° |
| 2026-04-27 22:14 | 24.81273 | 46.04410 | 36944 ft | 537 kts | 72° |
| 2026-04-27 22:14 | 24.83406 | 46.12290 | 36947 ft | 537 kts | 72° |
| 2026-04-27 22:15 | 24.85535 | 46.20169 | 36941 ft | 537 kts | 72° |
| 2026-04-27 22:15 | 24.87657 | 46.28053 | 36948 ft | 537 kts | 72° |
| 2026-04-27 22:16 | 24.89770 | 46.35939 | 36944 ft | 536 kts | 72° |
| 2026-04-27 22:16 | 24.91879 | 46.43820 | 36944 ft | 537 kts | 72° |
| 2026-04-27 22:17 | 24.93990 | 46.51715 | 36939 ft | 537 kts | 72° |
| 2026-04-27 22:17 | 24.96165 | 46.59588 | 36958 ft | 536 kts | 66° |
| 2026-04-27 22:18 | 24.99771 | 46.66699 | 36944 ft | 528 kts | 47° |
| 2026-04-27 22:18 | 25.04920 | 46.72249 | 36939 ft | 514 kts | 29° |
| 2026-04-27 22:19 | 25.10757 | 46.76787 | 36929 ft | 513 kts | 28° |
| 2026-04-27 22:19 | 25.16593 | 46.81339 | 36931 ft | 514 kts | 28° |
| 2026-04-27 22:20 | 25.22429 | 46.85909 | 36923 ft | 515 kts | 28° |
| 2026-04-27 22:20 | 25.28273 | 46.90489 | 36948 ft | 515 kts | 28° |
| 2026-04-27 22:21 | 25.34099 | 46.95041 | 36924 ft | 516 kts | 28° |
| 2026-04-27 22:21 | 25.39957 | 46.99636 | 36925 ft | 516 kts | 28° |
| 2026-04-27 22:22 | 25.45821 | 47.04246 | 36928 ft | 517 kts | 28° |
| 2026-04-27 22:22 | 25.51682 | 47.08858 | 36924 ft | 516 kts | 28° |
| 2026-04-27 22:23 | 25.57537 | 47.13467 | 36923 ft | 516 kts | 28° |
| 2026-04-27 22:23 | 25.63393 | 47.18082 | 36946 ft | 517 kts | 28° |
| 2026-04-27 22:24 | 25.69271 | 47.22723 | 36925 ft | 518 kts | 28° |
| 2026-04-27 22:24 | 25.75144 | 47.27361 | 36920 ft | 519 kts | 28° |
| 2026-04-27 22:25 | 25.80984 | 47.31989 | 36913 ft | 519 kts | 28° |
| 2026-04-27 22:25 | 25.86874 | 47.36655 | 36911 ft | 520 kts | 28° |
| 2026-04-27 22:26 | 25.92758 | 47.41319 | 36917 ft | 520 kts | 28° |
| 2026-04-27 22:26 | 25.98654 | 47.46003 | 36901 ft | 520 kts | 28° |
| 2026-04-27 22:27 | 26.04544 | 47.50690 | 36899 ft | 521 kts | 28° |
| 2026-04-27 22:27 | 26.10446 | 47.55383 | 36896 ft | 521 kts | 28° |
| 2026-04-27 22:28 | 26.16353 | 47.60084 | 36893 ft | 522 kts | 28° |
| 2026-04-27 22:28 | 26.22190 | 47.64839 | 36890 ft | 526 kts | 34° |
| 2026-04-27 22:28 | 26.24807 | 47.67718 | 36912 ft | 534 kts | 45° |
| 2026-04-27 22:29 | 26.27016 | 47.71085 | 36908 ft | 541 kts | 56° |
| 2026-04-27 22:29 | 26.29904 | 47.78838 | 36890 ft | 546 kts | 77° |
| 2026-04-27 22:30 | 26.31296 | 47.85713 | 36875 ft | 546 kts | 77° |
| 2026-04-27 22:30 | 26.32987 | 47.93974 | 36854 ft | 547 kts | 77° |
| 2026-04-27 22:31 | 26.34672 | 48.02204 | 36869 ft | 547 kts | 77° |
| 2026-04-27 22:31 | 26.36349 | 48.10483 | 36869 ft | 547 kts | 77° |
| 2026-04-27 22:32 | 26.38019 | 48.18761 | 36864 ft | 547 kts | 77° |
| 2026-04-27 22:32 | 26.39691 | 48.27037 | 36856 ft | 546 kts | 77° |
| 2026-04-27 22:33 | 26.41347 | 48.35252 | 36829 ft | 545 kts | 77° |
| 2026-04-27 22:33 | 26.42178 | 48.39386 | 36272 ft | 547 kts | 77° |
| 2026-04-27 22:33 | 26.43008 | 48.43545 | 35460 ft | 551 kts | 77° |
| 2026-04-27 22:33 | 26.43840 | 48.47722 | 34565 ft | 556 kts | 78° |
| 2026-04-27 22:34 | 26.44682 | 48.51968 | 33513 ft | 563 kts | 78° |
| 2026-04-27 22:34 | 26.45534 | 48.56260 | 32563 ft | 565 kts | 78° |
| 2026-04-27 22:34 | 26.46380 | 48.60522 | 31824 ft | 561 kts | 78° |
| 2026-04-27 22:34 | 26.47201 | 48.64767 | 31116 ft | 556 kts | 82° |
| 2026-04-27 22:35 | 26.47621 | 48.69023 | 30410 ft | 548 kts | 91° |
| 2026-04-27 22:35 | 26.47720 | 48.73251 | 29687 ft | 542 kts | 92° |
| 2026-04-27 22:35 | 26.47815 | 48.77432 | 28913 ft | 532 kts | 91° |
| 2026-04-27 22:35 | 26.47912 | 48.81518 | 28258 ft | 519 kts | 91° |
| 2026-04-27 22:36 | 26.48005 | 48.85489 | 27681 ft | 505 kts | 91° |
| 2026-04-27 22:36 | 26.48093 | 48.89354 | 27101 ft | 492 kts | 91° |
| 2026-04-27 22:36 | 26.48176 | 48.93127 | 26557 ft | 480 kts | 91° |
| 2026-04-27 22:36 | 26.48254 | 48.96809 | 26015 ft | 469 kts | 91° |
| 2026-04-27 22:37 | 26.48326 | 49.00355 | 25495 ft | 459 kts | 91° |
| 2026-04-27 22:37 | 26.48398 | 49.03876 | 24975 ft | 449 kts | 91° |
| 2026-04-27 22:37 | 26.48467 | 49.07325 | 24483 ft | 440 kts | 91° |
| 2026-04-27 22:37 | 26.48533 | 49.10704 | 24005 ft | 432 kts | 91° |
| 2026-04-27 22:38 | 26.48597 | 49.14041 | 23533 ft | 429 kts | 91° |
| 2026-04-27 22:38 | 26.48661 | 49.17355 | 23018 ft | 425 kts | 91° |
| 2026-04-27 22:38 | 26.48725 | 49.20638 | 22570 ft | 421 kts | 91° |
| 2026-04-27 22:38 | 26.48790 | 49.23888 | 22116 ft | 417 kts | 90° |
| 2026-04-27 22:39 | 26.48853 | 49.27116 | 21664 ft | 414 kts | 90° |
| 2026-04-27 22:39 | 26.48916 | 49.30313 | 21223 ft | 410 kts | 90° |
| 2026-04-27 22:39 | 26.48977 | 49.33490 | 20771 ft | 408 kts | 90° |
| 2026-04-27 22:39 | 26.49037 | 49.36645 | 20318 ft | 404 kts | 90° |
| 2026-04-27 22:40 | 26.49093 | 49.39768 | 19854 ft | 401 kts | 90° |
| 2026-04-27 22:40 | 26.49149 | 49.42875 | 19397 ft | 398 kts | 90° |
| 2026-04-27 22:40 | 26.49205 | 49.45938 | 18994 ft | 407 kts | 90° |
| 2026-04-27 22:40 | 26.49264 | 49.49127 | 18627 ft | 413 kts | 89° |
| 2026-04-27 22:41 | 26.49324 | 49.52332 | 18264 ft | 412 kts | 89° |
| 2026-04-27 22:41 | 26.49381 | 49.55516 | 17870 ft | 410 kts | 89° |
| 2026-04-27 22:41 | 26.49437 | 49.58684 | 17464 ft | 407 kts | 89° |
| 2026-04-27 22:41 | 26.49492 | 49.61827 | 17049 ft | 403 kts | 89° |
| 2026-04-27 22:42 | 26.49545 | 49.64946 | 16643 ft | 400 kts | 90° |
| 2026-04-27 22:42 | 26.49595 | 49.68038 | 16244 ft | 396 kts | 90° |
| 2026-04-27 22:42 | 26.49645 | 49.71106 | 15880 ft | 393 kts | 90° |
| 2026-04-27 22:42 | 26.49693 | 49.74142 | 15486 ft | 389 kts | 89° |
| 2026-04-27 22:43 | 26.49741 | 49.77145 | 15101 ft | 385 kts | 89° |
| 2026-04-27 22:43 | 26.49723 | 49.80115 | 14726 ft | 381 kts | 92° |
| 2026-04-27 22:43 | 26.49599 | 49.83062 | 14348 ft | 378 kts | 94° |
| 2026-04-27 22:43 | 26.49418 | 49.85981 | 13978 ft | 375 kts | 95° |
| 2026-04-27 22:44 | 26.49216 | 49.88875 | 13610 ft | 372 kts | 95° |
| 2026-04-27 22:44 | 26.49021 | 49.91718 | 13203 ft | 370 kts | 95° |
| 2026-04-27 22:44 | 26.48836 | 49.94573 | 12794 ft | 368 kts | 95° |
| 2026-04-27 22:44 | 26.48666 | 49.97413 | 12389 ft | 365 kts | 94° |
| 2026-04-27 22:45 | 26.48507 | 50.00213 | 11989 ft | 357 kts | 94° |
| 2026-04-27 22:45 | 26.48357 | 50.02954 | 11595 ft | 350 kts | 94° |
| 2026-04-27 22:45 | 26.48211 | 50.05644 | 11205 ft | 344 kts | 94° |
| 2026-04-27 22:45 | 26.48066 | 50.08290 | 10804 ft | 338 kts | 94° |
| 2026-04-27 22:46 | 26.47921 | 50.10893 | 10430 ft | 333 kts | 94° |
| 2026-04-27 22:46 | 26.47777 | 50.13462 | 10055 ft | 329 kts | 94° |
| 2026-04-27 22:46 | 26.47637 | 50.15992 | 9689 ft | 325 kts | 95° |
| 2026-04-27 22:46 | 26.47497 | 50.18499 | 9289 ft | 321 kts | 95° |
| 2026-04-27 22:47 | 26.47354 | 50.20979 | 8892 ft | 318 kts | 95° |
| 2026-04-27 22:47 | 26.47210 | 50.23429 | 8495 ft | 315 kts | 95° |
| 2026-04-27 22:47 | 26.47070 | 50.25826 | 8102 ft | 312 kts | 95° |
| 2026-04-27 22:47 | 26.46930 | 50.28232 | 7725 ft | 309 kts | 95° |
| 2026-04-27 22:48 | 26.46792 | 50.30619 | 7343 ft | 307 kts | 95° |
| 2026-04-27 22:48 | 26.46655 | 50.32985 | 6966 ft | 304 kts | 95° |
| 2026-04-27 22:48 | 26.46505 | 50.35332 | 6576 ft | 302 kts | 99° |
| 2026-04-27 22:48 | 26.45950 | 50.37560 | 6129 ft | 294 kts | 118° |
| 2026-04-27 22:49 | 26.44867 | 50.39442 | 5613 ft | 286 kts | 135° |
| 2026-04-27 22:49 | 26.43436 | 50.40968 | 5038 ft | 283 kts | 141° |
| 2026-04-27 22:49 | 26.41990 | 50.42456 | 4472 ft | 283 kts | 140° |
| 2026-04-27 22:49 | 26.40550 | 50.43945 | 3891 ft | 282 kts | 140° |
| 2026-04-27 22:50 | 26.39117 | 50.45433 | 3328 ft | 280 kts | 139° |
| 2026-04-27 22:50 | 26.37617 | 50.46748 | 2762 ft | 276 kts | 148° |
| 2026-04-27 22:50 | 26.36057 | 50.47974 | 2193 ft | 274 kts | 138° |
| 2026-04-27 22:50 | 26.34891 | 50.49645 | 1650 ft | 272 kts | 123° |
| 2026-04-27 22:51 | 26.33952 | 50.51399 | 1482 ft | 254 kts | 123° |
| 2026-04-27 22:51 | 26.33062 | 50.52992 | 1467 ft | 230 kts | 125° |
| 2026-04-27 22:51 | 26.32247 | 50.54409 | 1437 ft | 208 kts | 126° |
| 2026-04-27 22:51 | 26.31489 | 50.55722 | 1251 ft | 192 kts | 125° |
| 2026-04-27 22:52 | 26.30812 | 50.56898 | 1040 ft | 167 kts | 125° |
| 2026-04-27 22:52 | 26.30219 | 50.57927 | 843 ft | 151 kts | 125° |
| 2026-04-27 22:52 | 26.29660 | 50.58895 | 660 ft | 147 kts | 123° |
| 2026-04-27 22:52 | 26.29112 | 50.59845 | 486 ft | 145 kts | 124° |
| 2026-04-27 22:53 | 26.28579 | 50.60769 | 306 ft | 140 kts | 122° |
| 2026-04-27 22:53 | 26.28047 | 50.61692 | 125 ft | 141 kts | 122° |
| 2026-04-27 22:53 | 26.27526 | 50.62594 | 21 ft | 130 kts | 120° |
| 2026-04-27 22:53 | 26.27114 | 50.63315 | 14 ft | 86 kts | 122° |
| 2026-04-27 22:54 | 26.26964 | 50.63570 | 15 ft | 24 kts | 123° |
| 2026-04-27 22:54 | 26.26878 | 50.63708 | 16 ft | 18 kts | 143° |
| 2026-04-27 22:54 | 26.26756 | 50.63753 | 18 ft | 19 kts | 168° |
| 2026-04-27 22:54 | 26.26687 | 50.63739 | 22 ft | 9 kts | 235° |
| 2026-04-27 22:55 | 26.26699 | 50.63672 | 23 ft | 10 kts | 301° |
| 2026-04-27 22:55 | 26.26740 | 50.63596 | 20 ft | 13 kts | 301° |
| 2026-04-27 22:55 | 26.26795 | 50.63505 | 20 ft | 16 kts | 308° |
| 2026-04-27 22:55 | 26.26837 | 50.63426 | 19 ft | 9 kts | 284° |
| 2026-04-27 22:56 | 26.26815 | 50.63376 | 21 ft | 8 kts | 221° |
| 2026-04-27 22:56 | 26.26782 | 50.63341 | 23 ft | 5 kts | 263° |
| 2026-04-27 22:56 | 26.26798 | 50.63296 | 21 ft | 8 kts | 298° |
| 2026-04-27 22:56 | 26.26835 | 50.63231 | 22 ft | 12 kts | 303° |
| 2026-04-27 22:57 | 26.26833 | 50.63178 | 23 ft | 8 kts | 224° |
| 2026-04-27 22:57 | 26.26789 | 50.63145 | 21 ft | 7 kts | 212° |
| 2026-04-27 22:57 | 26.26772 | 50.63133 | 22 ft | 0 kts | 213° |